Airfield :
LOGIN :

Register | Disclaimer

   EN    FR    IT 

 










Legend :    VFR   Marginal VFR   IFR   Intensive IFR   Very Intensive IFR
Visi :
Ceiling :
>= 8 km
>= 3000ft
5 to 8 km
1000 to 3000 ft
1500m to 5 km
500 to 1000 ft
800 to 1500m
200 to 500 ft
< 800m
< 200 ft
Symbols :   Thunderstorms  Fog  Heavy snow  Heavy precipitations  Wind > 20 kt
SIGMETs :     Misc.  Thunderstorms  Icing  Turbulence  Mountain Waves  Volcanic Ashes






- Airport Elevation : 490 ft
- IATA code : CHQ


LGSA - Ioannis Daskalogiannis

CURRENT METAR :
  • 210320Z 32008KT 9999 -RA FEW015 FEW018TCU BKN025 10/08 Q1012

EXPIRED METARs :
  • 210250Z 32011KT 9999 -RA FEW015 FEW018TCU BKN025 10/08 Q1012
  • 210220Z 33009KT 9999 FEW015 FEW018TCU BKN025 10/08 Q1012
  • 210150Z 33010KT 9999 FEW015 FEW018CB BKN025 10/08 Q1012
  • 210120Z 32010KT 9999 FEW018CB BKN030 10/08 Q1011
  • 210050Z 33010KT 9999 VCTS FEW018CB BKN030 10/08 Q1011
  • 210020Z 34010KT 9999 TS FEW018CB BKN030 10/08 Q1011

TAF TAF LGSA
Valid from the 21 at 00:00 until the 22 at 00:00 UTC


202300Z 2100/2124 28016KT 9999 SCT030 SCT080
PROB40
TEMPO 2100/2112 5000 RA FEW018TCU BKN025 BKN070
PROB30
TEMPO 2101/2109 4000 TSRA FEW010 FEW018CB BKN020 BKN070
BECMG 2101/2103 34018KT
TEMPO 2103/2109 35018G30KT



MET'MAP, your aeronautical weather chart ! - Copyright ORBIFLY December 2007 - Disclaimer

ORBIFLY MET'MAP TEAM :

Programming & Development : Alexandra Zaïnal
Concept & original design : Baudouin d'Aumeries
Assistance for programming : Marc-Olivier Méhu
Technical & hardware support : Manuel Goepfert

Contact : metmap@orbifly.com




SOURCES & CREDITS :

   NOAA